Terminal Aerodrome Forecast
Issued by NWS

Home | Current Version | Previous Version | Text Only | Print | Product List | Glossary On
Versions: 1 2 3 4 5 6 7 8 9 10 11 12 13 14 15 16 17 18
000
FTAK31 PANC 291121
TAFADU
TAF
PADU 291121Z 2912/3012 VRB05KT P6SM SCT025
      TEMPO 2912/2916 BKN025
     FM291900 09012G18KT P6SM BKN035 BKN120
     FM300200 07019G30KT P6SM VCSH BKN025 OVC070
     FM300700 04025G35KT P6SM -RASN BKN025 OVC040=

USA.gov is the U.S. government's official web portal to all federal, state and local government web resources and services.